x

South Santa Rosa Is. Ca (46069) Wave Buoy

3:50 - Tue 27th Sep 2016 All times are PDT. -7 hours from GMT.

  • Sig Wave height 3.3ft
  • Swell Direction
  • Peak Period 9s
  • Average Period 8s
  • Wind
    7mph
  • Sea Temp 67°f
  • Luft Temp 70°f
  • Sea Pressure 1010mb
  • South Santa Rosa Is. Ca
  • South Santa Rosa Is. Ca

More Historic Weather Station data

Upgrade to MSW Pro to gain access to the past 30 days of data for over 8000 Wavebouys and Weather Stations around the globe.

Join Pro

Comparision Forecast

View Surf forecast
   
Di 09/27 3:50 3.5ft 9s 8s 7
mph
1010mb 67f 70f
2:50 3.5ft 15s 9s 4 7 mph 1010mb 67f 72f
1:50 3.5ft 14s 9s 2 4 mph 1010.2mb 67f 72f
12:50 4ft 15s 9s 4
mph
1010.1mb 67f 72f
11:50 3.5ft 10s 8s 2
mph
1010.7mb 65f 71f
10:50 4ft 14s 8s 2
mph
1010.8mb 65f 69f
9:50 4ft 15s 8s 7 11 mph 1010.9mb 64f 70f
8:50 4ft 10s 7s 4 7 mph 1010.2mb 64f 69f
7:50 3.5ft 14s 7s 7
mph
1010.1mb 63f 69f
6:50 4ft 14s 8s 9 11 mph 1009.5mb 63f 68f
5:50 3.5ft 15s 8s 11 13 mph 1009.3mb 63f 67f
4:50 4.5ft 15s 9s 9 11 mph 1009.7mb 63f 67f
3:50 4.5ft 15s 9s 2 4 mph 1010mb 64f 66f
2:50 4ft 15s 8s 9 11 mph 1010.3mb 64f 67f
1:50 3.5ft 15s 8s 11 13 mph 1010.6mb 64f 68f
12:50 3.5ft 14s 8s 11
mph
1011mb 64f 68f
Mo 09/26 11:50 3.5ft 15s 7s 9
mph
1011.4mb 64f 68f
10:50 4ft 16s 8s 9
mph
1011.6mb 63f 69f
9:50 4.5ft 15s 8s 11 13 mph 1011.5mb 64f 68f
8:50 4ft 15s 7s 11 13 mph 1011.7mb 63f 68f
7:50 4.5ft 15s 8s 11 13 mph 1011.2mb 63f 68f
6:50 4ft 9s 8s 11 13 mph 1011mb 64f 68f
5:50 4.5ft 15s 8s 11 13 mph 1011.1mb 65f 70f
4:50 4.5ft 15s 9s 7 9 mph 1011.3mb 66f 73f
3:50 4ft 15s 8s 7 9 mph 1012mb 65f 72f
2:50 4.5ft 15s 9s 4 7 mph 1012.6mb 65f 74f
1:50 4ft 15s 9s 4
mph
1013mb 65f 77f
12:50 4ft 14s 9s 2
mph
1013.5mb 65f 74f
11:50 5ft 15s 9s  -  4 mph 1013.9mb 65f 71f
10:50 4ft 15s 8s 2 4 mph 1014.2mb 64f 71f
9:50 4.5ft 15s 8s 7 9 mph 1014mb 63f 71f
8:50 4.5ft 15s 8s 7
mph
1013.7mb 62f 70f
7:50 4.5ft 15s 8s 9 11 mph 1013.4mb 62f 70f
6:50 5ft 16s 8s 7 9 mph 1013mb 62f 68f
5:50 5ft 15s 8s 4
mph
1012.5mb 63f 67f
4:50 4.5ft 15s 8s 4
mph
1012.2mb 62f 66f
3:50 5ft 15s 8s 7 9 mph 1012.1mb 62f 66f
2:50 5ft 16s 8s 9
mph
1012.4mb 62f 65f
1:50 5ft 15s 7s 11 13 mph 1012.8mb 62f 67f
12:50 5ft 16s 8s 9 11 mph 1013.1mb 62f 67f
So 09/25 11:50 5.5ft 15s 8s 13 16 mph 1013.1mb 62f 66f
10:50 5ft 9s 7s 16 20 mph 1013.1mb 62f 67f
9:50 5ft 16s 8s 13 16 mph 1013.7mb 63f 66f
8:50 5ft 15s 8s 13
mph
1013.5mb 63f 65f
7:50 5.5ft 16s 8s 18 20 mph 1013.1mb 63f 66f
6:50 6ft 16s 9s 9
mph
1013.3mb 63f 64f
5:50 5ft 16s 8s 7
mph
1013.4mb 63f 65f
4:50 5.5ft 16s 8s 11 13 mph 1013.5mb 63f 65f
3:50 5ft 16s 8s 11
mph
1014.2mb 64f 65f
2:50 5ft 16s 8s 7 9 mph 1014.6mb 64f 65f
1:50 5ft 16s 8s 4 7 mph 1015.2mb 64f 65f
12:50 5ft 16s 9s 4
mph
1016mb 64f 64f
11:50 5ft 16s 9s 4 7 mph 1016.3mb 63f 64f
10:50 5.5ft 16s 9s 4 7 mph 1016.7mb 62f 63f
9:50 5ft 16s 8s 4 7 mph 1016.7mb 62f 62f
8:50 5.5ft 16s 8s 4
mph
1016.3mb 62f 62f
7:50 5ft 16s 8s  -  2 mph 1015.9mb 62f 63f
6:50 5ft 16s 8s 2 4 mph 1015.1mb 61f 61f
5:50 5ft 16s 8s 4
mph
1014.6mb 61f 61f
4:50 5ft 12s 8s 4 7 mph 1014.3mb 61f 62f
3:50 5ft 16s 8s 9
mph
1013.9mb 61f 62f
2:50 5ft 16s 7s 11
mph
1014.4mb 61f 61f
1:50 5ft 16s 8s 11
mph
1014.7mb 61f 61f
12:50 4.5ft 16s 6s 9 11 mph 1014.9mb 61f 62f
Sa 09/24 11:50 5ft 16s 7s 13
mph
1015mb 61f 62f
10:50 5ft 16s 7s 13 16 mph 1015.1mb 62f 62f
9:50 5ft 16s 7s 13 16 mph 1015.2mb 62f 62f
8:50 5.5ft 17s 8s 16 18 mph 1015.2mb 62f 62f
7:50 5ft 16s 7s 16 18 mph 1014.9mb 62f 62f
6:50 5.5ft 16s 7s 13 16 mph 1015mb 62f 62f
5:50 5ft 16s 7s 18 20 mph 1014.7mb 62f 63f
4:50 5ft 16s 8s 13 16 mph 1014.9mb 63f 64f
3:50 6ft 17s 8s 11 13 mph 1015.3mb 63f 64f
2:50 5.5ft 17s 8s 11
mph
1015.6mb 63f 63f
1:50 5.5ft 17s 8s 4 7 mph 1016mb 63f 64f
12:50 5ft 17s 7s 4 7 mph 1016.4mb 62f 63f
11:50 5.5ft 17s 8s 7 9 mph 1016.7mb 62f 63f
10:50 5.5ft 17s 7s 7 9 mph 1016.8mb 62f 63f
9:50 6.5ft 17s 8s 4
mph
1016.4mb 61f 62f
8:50 7ft 17s 8s 4
mph
1015.8mb 61f 62f
7:50 7ft 17s 8s 11 13 mph 1015.5mb 61f 62f
6:50 7ft 17s 7s 13 16 mph 1015mb 61f 62f
5:50 7ft 17s 7s 16 20 mph 1014.6mb 61f 62f
4:50 8ft 17s 7s 18 20 mph 1014.4mb 61f 61f
3:50 7.5ft 9s 6s 20 22 mph 1014.3mb 61f 61f
2:50 8ft 8s 7s 22 27 mph 1014.7mb 61f 61f
1:50 8ft 17s 7s 20 25 mph 1014.8mb 61f 61f
12:50 7.5ft 17s 6s 20 25 mph 1014.9mb 61f 61f